createdAt,value
2023-03-01T00:01:41.620Z,38.35
2023-03-01T00:04:08.959Z,39.92
2023-03-01T00:06:36.862Z,43.88
2023-03-01T00:09:04.489Z,37.30
2023-03-01T00:11:35.018Z,44.47
2023-03-01T00:14:03.470Z,40.80
2023-03-01T00:16:34.698Z,49.78
2023-03-01T00:19:01.586Z,43.53
2023-03-01T00:21:30.061Z,40.30
2023-03-01T00:23:57.375Z,46.50
2023-03-01T00:26:26.100Z,40.72
2023-03-01T00:28:54.161Z,36.47
2023-03-01T00:31:23.754Z,41.03
2023-03-01T00:33:55.022Z,44.67
2023-03-01T00:36:21.956Z,42.95
2023-03-01T00:41:19.284Z,33.65
2023-03-01T00:43:46.485Z,46.53
2023-03-01T00:46:18.934Z,39.53
2023-03-01T00:48:46.322Z,44.15
2023-03-01T00:51:24.847Z,45.20
2023-03-01T00:53:54.861Z,39.00
2023-03-01T00:56:22.413Z,39.33
2023-03-01T00:58:49.727Z,39.63
2023-03-01T01:01:23.151Z,41.65
2023-03-01T01:03:55.125Z,37.35
2023-03-01T01:06:24.520Z,39.28
2023-03-01T01:08:53.058Z,50.00
2023-03-01T01:11:21.151Z,36.75
2023-03-01T01:13:51.979Z,51.45
2023-03-01T01:16:21.116Z,41.05
2023-03-01T01:18:48.380Z,37.28
2023-03-01T01:21:17.968Z,42.70
2023-03-01T01:23:46.514Z,45.70
2023-03-01T01:26:22.442Z,39.92
2023-03-01T01:28:51.068Z,35.30
2023-03-01T01:31:19.476Z,44.38
2023-03-01T01:33:47.593Z,39.58
2023-03-01T01:36:14.520Z,39.42
2023-03-01T01:38:43.528Z,39.83
2023-03-01T01:41:14.823Z,43.88
2023-03-01T01:43:44.150Z,38.85
2023-03-01T01:46:30.262Z,35.05
2023-03-01T01:49:11.850Z,38.13
2023-03-01T01:51:43.656Z,39.97
2023-03-01T01:54:15.509Z,37.40
2023-03-01T01:56:47.273Z,53.55
2023-03-01T01:59:15.264Z,44.17
2023-03-01T02:01:42.354Z,45.03
2023-03-01T02:04:09.270Z,46.35
2023-03-01T02:06:51.599Z,42.40
2023-03-01T02:09:21.838Z,40.50
2023-03-01T02:11:49.969Z,43.65
2023-03-01T02:14:17.565Z,48.17
2023-03-01T02:16:44.962Z,37.80
2023-03-01T02:19:23.728Z,44.50
2023-03-01T02:22:20.050Z,36.33
2023-03-01T02:25:02.342Z,39.40
2023-03-01T02:27:39.398Z,35.78
2023-03-01T02:30:07.734Z,43.75
2023-03-01T02:32:36.548Z,41.33
2023-03-01T02:35:07.546Z,46.72
2023-03-01T02:37:37.055Z,43.60
2023-03-01T02:40:12.612Z,44.55
2023-03-01T02:42:56.438Z,42.05
2023-03-01T02:45:24.202Z,39.63
2023-03-01T02:47:51.120Z,46.20
2023-03-01T02:52:57.490Z,35.38
2023-03-01T02:55:25.356Z,43.60
2023-03-01T03:00:29.750Z,42.78
2023-03-01T03:02:58.180Z,44.05
2023-03-01T03:05:28.562Z,46.28
2023-03-01T03:07:58.862Z,42.25
2023-03-01T03:10:30.088Z,49.83
2023-03-01T03:13:00.180Z,45.65
2023-03-01T03:15:28.754Z,53.60
2023-03-01T03:17:58.729Z,51.10
2023-03-01T03:20:31.565Z,49.40
2023-03-01T03:23:00.801Z,51.80
2023-03-01T03:25:30.508Z,43.45
2023-03-01T03:27:59.095Z,45.03
2023-03-01T03:30:36.648Z,36.58
2023-03-01T03:33:03.482Z,43.90
2023-03-01T03:35:38.747Z,49.45
2023-03-01T03:38:10.345Z,46.28
2023-03-01T03:40:39.947Z,50.60
2023-03-01T03:43:09.722Z,44.00
2023-03-01T03:45:37.622Z,38.75
2023-03-01T03:48:06.538Z,42.22
2023-03-01T03:50:34.114Z,41.80
2023-03-01T03:53:07.705Z,39.72
2023-03-01T03:55:35.570Z,40.63
2023-03-01T03:58:07.944Z,39.83
2023-03-01T04:00:37.541Z,43.88
2023-03-01T04:03:05.053Z,39.90
2023-03-01T04:05:32.125Z,44.28
2023-03-01T04:10:45.012Z,39.90
2023-03-01T04:13:14.404Z,39.17
2023-03-01T04:15:41.587Z,48.45
2023-03-01T04:18:10.040Z,48.85
2023-03-01T04:20:37.233Z,41.05
2023-03-01T04:23:17.463Z,51.03
2023-03-01T04:25:55.140Z,43.28
2023-03-01T04:28:28.390Z,44.45
2023-03-01T04:30:57.174Z,48.00
2023-03-01T04:33:24.938Z,44.38
2023-03-01T04:35:51.816Z,40.60
2023-03-01T04:38:20.275Z,48.22
2023-03-01T04:40:47.064Z,46.97
2023-03-01T04:45:45.080Z,41.50
2023-03-01T04:48:12.425Z,43.53
2023-03-01T04:50:40.674Z,41.65
2023-03-01T04:53:07.808Z,41.28
2023-03-01T04:55:34.860Z,39.05
2023-03-01T04:58:04.514Z,41.65
2023-03-01T05:00:31.528Z,42.83
2023-03-01T05:03:01.375Z,42.22
2023-03-01T05:05:36.197Z,45.97
2023-03-01T05:08:05.923Z,45.22
2023-03-01T05:10:36.289Z,43.47
2023-03-01T05:13:08.003Z,38.90
2023-03-01T05:15:34.893Z,41.42
2023-03-01T05:18:01.858Z,56.90
2023-03-01T05:20:30.554Z,44.85
2023-03-01T05:23:00.438Z,45.53
2023-03-01T05:25:34.179Z,40.33
2023-03-01T05:28:07.315Z,40.58
2023-03-01T05:33:14.383Z,43.35
2023-03-01T05:35:46.059Z,43.58
2023-03-01T05:38:16.752Z,44.67
2023-03-01T05:40:45.292Z,44.08
2023-03-01T05:43:17.906Z,36.42
2023-03-01T05:45:45.119Z,41.72
2023-03-01T05:48:13.852Z,41.20
2023-03-01T05:50:44.308Z,45.85
2023-03-01T05:53:12.545Z,38.78
2023-03-01T05:55:41.261Z,40.95
2023-03-01T05:58:18.105Z,44.08
2023-03-01T06:00:46.919Z,50.97
2023-03-01T06:03:20.197Z,45.22
2023-03-01T06:05:52.523Z,47.03
2023-03-01T06:08:21.482Z,45.50
2023-03-01T06:10:48.786Z,43.90
2023-03-01T06:13:16.527Z,41.72
2023-03-01T06:15:46.970Z,42.92
2023-03-01T06:18:14.143Z,44.72
2023-03-01T06:23:10.667Z,40.67
2023-03-01T06:25:38.463Z,42.58
2023-03-01T06:28:06.681Z,46.70
2023-03-01T06:30:38.992Z,42.33
2023-03-01T06:33:06.375Z,44.20
2023-03-01T06:35:34.663Z,38.95
2023-03-01T06:38:06.570Z,47.92
2023-03-01T06:40:36.243Z,51.75
2023-03-01T06:43:03.630Z,47.33
2023-03-01T06:45:30.810Z,47.05
2023-03-01T06:48:07.838Z,45.95
2023-03-01T06:50:35.830Z,53.00
2023-03-01T06:53:05.734Z,49.97
2023-03-01T06:55:33.578Z,50.30
2023-03-01T06:58:05.480Z,47.95
2023-03-01T07:00:34.288Z,45.45
2023-03-01T07:03:04.464Z,50.72
2023-03-01T07:05:41.110Z,50.20
2023-03-01T07:08:10.425Z,44.78
2023-03-01T07:10:37.422Z,45.17
2023-03-01T07:15:35.292Z,38.42
2023-03-01T07:18:03.177Z,40.50
2023-03-01T07:20:30.315Z,46.60
2023-03-01T07:22:59.465Z,41.38
2023-03-01T07:25:26.840Z,44.08
2023-03-01T07:27:54.565Z,41.38
2023-03-01T07:30:22.150Z,44.63
2023-03-01T07:32:49.168Z,44.85
2023-03-01T07:37:43.484Z,44.38
2023-03-01T07:40:15.250Z,44.42
2023-03-01T07:42:42.074Z,37.25
2023-03-01T07:45:13.883Z,38.67
2023-03-01T07:47:41.210Z,40.92
2023-03-01T07:50:08.888Z,40.65
2023-03-01T07:52:35.816Z,39.38
2023-03-01T07:55:02.659Z,41.80
2023-03-01T07:57:29.424Z,42.25
2023-03-01T07:59:56.381Z,38.40
2023-03-01T08:02:23.255Z,43.67
2023-03-01T08:04:50.159Z,38.47
2023-03-01T08:07:20.002Z,37.95
2023-03-01T08:09:46.846Z,40.70
2023-03-01T08:14:40.764Z,42.45
2023-03-01T08:17:07.642Z,40.53
2023-03-01T08:19:35.665Z,42.35
2023-03-01T08:22:03.861Z,32.83
2023-03-01T08:24:32.166Z,46.55
2023-03-01T08:27:00.614Z,39.45
2023-03-01T08:29:27.507Z,36.33
2023-03-01T08:31:54.552Z,41.47
2023-03-01T08:34:21.480Z,35.78
2023-03-01T08:36:51.957Z,38.65
2023-03-01T08:39:20.654Z,39.53
2023-03-01T08:41:53.476Z,40.53
2023-03-01T08:44:22.280Z,41.08
2023-03-01T08:46:51.185Z,35.47
2023-03-01T08:49:20.270Z,38.97
2023-03-01T08:51:49.147Z,35.92
2023-03-01T08:54:21.872Z,32.55
2023-03-01T08:56:49.834Z,37.55
2023-03-01T08:59:18.602Z,29.42
2023-03-01T09:01:48.811Z,35.67
2023-03-01T09:04:16.429Z,32.55
2023-03-01T09:06:43.303Z,33.67
2023-03-01T09:09:19.394Z,34.30
2023-03-01T09:11:47.592Z,37.47
2023-03-01T09:14:15.767Z,33.13
2023-03-01T09:16:45.006Z,33.97
2023-03-01T09:19:12.366Z,31.88
2023-03-01T09:21:41.295Z,31.42
2023-03-01T09:24:14.685Z,35.00
2023-03-01T09:26:41.798Z,35.72
2023-03-01T09:31:37.990Z,26.20
2023-03-01T09:34:05.510Z,24.50
2023-03-01T09:36:33.229Z,25.73
2023-03-01T09:39:01.299Z,27.15
2023-03-01T09:41:31.099Z,28.30
2023-03-01T09:44:05.768Z,25.55
2023-03-01T09:46:39.137Z,23.80
2023-03-01T09:49:13.292Z,26.10
2023-03-01T09:51:40.905Z,21.70
2023-03-01T09:54:11.060Z,21.40
2023-03-01T09:57:14.521Z,22.30
2023-03-01T10:00:05.747Z,21.83
2023-03-01T10:03:03.386Z,23.52
2023-03-01T10:05:53.810Z,23.65
2023-03-01T10:08:42.747Z,24.27
2023-03-01T10:11:41.964Z,21.83
2023-03-01T10:14:46.043Z,21.90
2023-03-01T10:17:39.623Z,23.70
2023-03-01T10:20:22.741Z,22.38
2023-03-01T10:22:53.638Z,20.80
2023-03-01T10:25:24.312Z,24.00
2023-03-01T10:27:55.361Z,22.40
2023-03-01T10:30:52.653Z,20.17
2023-03-01T10:33:24.654Z,21.83
2023-03-01T10:35:52.314Z,21.02
2023-03-01T10:38:21.853Z,24.63
2023-03-01T10:40:56.104Z,22.88
2023-03-01T10:43:27.959Z,24.80
2023-03-01T10:45:54.906Z,22.92
2023-03-01T10:48:30.624Z,20.00
2023-03-01T10:51:00.500Z,20.20
2023-03-01T10:53:44.536Z,22.85
2023-03-01T10:56:16.733Z,23.13
2023-03-01T10:59:06.814Z,26.88
2023-03-01T11:01:36.656Z,23.98
2023-03-01T11:04:06.762Z,25.98
2023-03-01T11:06:35.937Z,23.27
2023-03-01T11:09:24.233Z,22.42
2023-03-01T11:11:56.404Z,24.35
2023-03-01T11:14:28.156Z,20.08
2023-03-01T11:17:07.341Z,19.38
2023-03-01T11:19:39.828Z,21.98
2023-03-01T11:22:22.082Z,24.60
2023-03-01T11:25:08.460Z,25.55
2023-03-01T11:27:44.312Z,21.95
2023-03-01T11:30:27.141Z,24.13
2023-03-01T11:33:09.629Z,29.10
2023-03-01T11:35:50.638Z,23.48
2023-03-01T11:38:25.927Z,24.25
2023-03-01T11:41:04.328Z,21.48
2023-03-01T11:43:55.929Z,23.88
2023-03-01T11:46:35.003Z,25.30
2023-03-01T11:49:17.403Z,22.35
2023-03-01T11:52:23.066Z,22.60
2023-03-01T11:55:01.569Z,25.05
2023-03-01T11:57:58.658Z,27.20
2023-03-01T12:00:38.249Z,26.25
2023-03-01T12:03:42.896Z,25.48
2023-03-01T12:06:39.414Z,27.75
2023-03-01T12:09:18.470Z,21.88
2023-03-01T12:12:23.502Z,26.50
2023-03-01T12:15:01.687Z,21.55
2023-03-01T12:17:46.751Z,27.88
2023-03-01T12:20:32.643Z,25.58
2023-03-01T12:23:20.330Z,28.67
2023-03-01T12:25:54.770Z,24.75
2023-03-01T12:28:49.722Z,26.27
2023-03-01T12:32:01.746Z,25.38
2023-03-01T12:34:34.672Z,21.23
2023-03-01T12:37:16.679Z,23.13
2023-03-01T12:39:57.274Z,21.65
2023-03-01T12:42:44.320Z,26.08
2023-03-01T12:45:33.211Z,26.73
2023-03-01T12:48:24.324Z,22.08
2023-03-01T12:51:00.840Z,24.67
2023-03-01T12:53:32.096Z,26.13
2023-03-01T12:56:13.249Z,26.23
2023-03-01T12:58:56.284Z,19.20
2023-03-01T13:01:42.919Z,23.05
2023-03-01T13:04:46.763Z,22.15
2023-03-01T13:07:56.085Z,23.15
2023-03-01T13:10:40.745Z,20.92
2023-03-01T13:15:52.571Z,26.95
2023-03-01T13:18:26.839Z,23.70
2023-03-01T13:20:58.457Z,24.70
2023-03-01T13:23:40.663Z,21.30
2023-03-01T13:26:19.460Z,21.27
2023-03-01T13:28:54.459Z,19.90
2023-03-01T13:31:21.370Z,22.80
2023-03-01T13:33:55.936Z,20.20
2023-03-01T13:36:29.387Z,23.48
2023-03-01T13:38:56.545Z,22.40
2023-03-01T13:41:44.915Z,23.58
2023-03-01T13:44:29.451Z,25.05
2023-03-01T13:47:02.554Z,22.15
2023-03-01T13:49:55.297Z,21.27
2023-03-01T13:52:33.377Z,19.05
2023-03-01T13:55:03.062Z,20.73
2023-03-01T13:57:35.655Z,17.30
2023-03-01T14:02:32.673Z,21.13
2023-03-01T14:05:01.587Z,20.00
2023-03-01T14:07:32.753Z,17.77
2023-03-01T14:10:02.547Z,18.10
2023-03-01T14:12:40.517Z,17.10
2023-03-01T14:15:35.617Z,20.02
2023-03-01T14:18:12.392Z,23.23
2023-03-01T14:20:52.421Z,20.10
2023-03-01T14:23:24.633Z,20.70
2023-03-01T14:26:01.384Z,20.17
2023-03-01T14:28:38.446Z,21.35
2023-03-01T14:31:47.187Z,21.80
2023-03-01T14:34:28.338Z,16.98
2023-03-01T14:36:55.255Z,19.63
2023-03-01T14:39:30.206Z,24.65
2023-03-01T14:42:00.595Z,25.27
2023-03-01T14:44:30.926Z,19.35
2023-03-01T14:46:59.453Z,21.25
2023-03-01T14:49:30.842Z,21.23
2023-03-01T14:51:58.838Z,23.20
2023-03-01T14:54:30.978Z,20.98
2023-03-01T14:57:02.406Z,20.83
2023-03-01T14:59:30.131Z,17.85
2023-03-01T15:01:59.340Z,20.20
2023-03-01T15:04:30.866Z,21.30
2023-03-01T15:07:05.836Z,22.02
2023-03-01T15:09:37.624Z,22.08
2023-03-01T15:12:26.903Z,21.73
2023-03-01T15:15:03.912Z,19.27
2023-03-01T15:17:39.751Z,23.88
2023-03-01T15:20:17.653Z,18.52
2023-03-01T15:22:49.606Z,21.25
2023-03-01T15:25:22.747Z,21.20
2023-03-01T15:27:52.152Z,20.90
2023-03-01T15:30:24.328Z,21.88
2023-03-01T15:33:23.843Z,21.38
2023-03-01T15:35:54.689Z,20.30
2023-03-01T15:38:26.208Z,21.05
2023-03-01T15:40:53.582Z,20.55
2023-03-01T15:43:45.343Z,17.95
2023-03-01T15:46:35.366Z,23.10
2023-03-01T15:49:06.458Z,23.33
2023-03-01T15:51:36.966Z,20.60
2023-03-01T15:54:16.355Z,19.65
2023-03-01T15:56:43.124Z,21.00
2023-03-01T15:59:12.873Z,20.00
2023-03-01T16:01:43.455Z,21.67
2023-03-01T16:04:21.516Z,23.67
2023-03-01T16:06:55.761Z,19.63
2023-03-01T16:09:24.601Z,21.88
2023-03-01T16:11:53.013Z,20.48
2023-03-01T16:14:20.011Z,21.45
2023-03-01T16:16:49.332Z,17.52
2023-03-01T16:19:16.935Z,20.23
2023-03-01T16:21:47.613Z,20.38
2023-03-01T16:24:15.687Z,21.23
2023-03-01T16:26:43.499Z,19.50
2023-03-01T16:29:10.295Z,18.73
2023-03-01T16:31:37.069Z,20.50
2023-03-01T16:34:04.580Z,19.90
2023-03-01T16:36:33.179Z,23.73
2023-03-01T16:39:01.735Z,19.48
2023-03-01T16:41:29.546Z,21.52
2023-03-01T16:43:57.131Z,28.08
2023-03-01T16:46:29.174Z,23.02
2023-03-01T16:48:56.847Z,23.25
2023-03-01T16:51:24.546Z,19.25
2023-03-01T16:53:52.075Z,21.13
2023-03-01T16:56:20.334Z,23.75
2023-03-01T16:58:47.157Z,21.58
2023-03-01T17:01:20.449Z,21.48
2023-03-01T17:03:49.631Z,20.42
2023-03-01T17:06:21.368Z,25.52
2023-03-01T17:08:48.211Z,25.08
2023-03-01T17:11:18.136Z,26.27
2023-03-01T17:13:45.208Z,28.30
2023-03-01T17:16:15.877Z,26.58
2023-03-01T17:18:42.959Z,21.52
2023-03-01T17:21:11.165Z,26.17
2023-03-01T17:23:40.716Z,23.48
2023-03-01T17:26:08.191Z,24.85
2023-03-01T17:28:39.205Z,23.38
2023-03-01T17:31:07.626Z,22.80
2023-03-01T17:33:36.504Z,25.42
2023-03-01T17:36:03.623Z,28.98
2023-03-01T17:38:30.686Z,26.95
2023-03-01T17:41:01.076Z,21.65
2023-03-01T17:43:28.262Z,24.73
2023-03-01T17:45:57.650Z,26.15
2023-03-01T17:48:25.879Z,30.05
2023-03-01T17:50:53.009Z,28.08
2023-03-01T17:53:20.400Z,27.88
2023-03-01T17:55:49.754Z,31.63
2023-03-01T17:58:24.107Z,26.83
2023-03-01T18:00:51.157Z,32.30
2023-03-01T18:03:18.023Z,33.50
2023-03-01T18:05:46.168Z,27.83
2023-03-01T18:08:13.612Z,27.10
2023-03-01T18:10:41.245Z,30.63
2023-03-01T18:13:10.082Z,25.65
2023-03-01T18:15:37.242Z,25.25
2023-03-01T18:18:04.398Z,28.92
2023-03-01T18:20:32.955Z,29.98
2023-03-01T18:23:00.135Z,26.92
2023-03-01T18:25:27.391Z,31.65
2023-03-01T18:27:54.214Z,30.80
2023-03-01T18:32:49.681Z,32.92
2023-03-01T18:35:16.749Z,34.53
2023-03-01T18:37:43.968Z,31.42
2023-03-01T18:40:12.987Z,39.13
2023-03-01T18:42:39.884Z,33.33
2023-03-01T18:47:34.155Z,30.75
2023-03-01T18:52:27.731Z,26.95
2023-03-01T18:57:25.443Z,24.10
2023-03-01T18:59:52.320Z,30.65
2023-03-01T19:02:19.393Z,29.30
2023-03-01T19:04:47.366Z,30.45
2023-03-01T19:07:14.362Z,30.25
2023-03-01T19:09:41.305Z,30.13
2023-03-01T19:14:35.397Z,30.42
2023-03-01T19:17:02.811Z,30.55
2023-03-01T19:22:05.741Z,35.40
2023-03-01T19:24:34.930Z,33.78
2023-03-01T19:27:02.814Z,33.42
2023-03-01T19:29:29.634Z,38.05
2023-03-01T19:34:24.709Z,33.17
2023-03-01T19:36:55.307Z,33.05
2023-03-01T19:39:22.088Z,41.83
2023-03-01T19:41:50.118Z,36.20
2023-03-01T19:44:17.499Z,36.13
2023-03-01T19:46:44.536Z,36.92
2023-03-01T19:49:13.634Z,35.60
2023-03-01T19:51:40.633Z,31.63
2023-03-01T19:54:09.935Z,36.05
2023-03-01T19:56:38.704Z,32.92
2023-03-01T19:59:06.909Z,40.03
2023-03-01T20:01:35.079Z,45.10
2023-03-01T20:04:02.566Z,37.13
2023-03-01T20:06:30.430Z,34.83
2023-03-01T20:08:58.005Z,43.85
2023-03-01T20:11:25.699Z,40.55
2023-03-01T20:13:52.722Z,47.92
2023-03-01T20:16:20.885Z,43.63
2023-03-01T20:18:48.266Z,44.00
2023-03-01T20:21:24.157Z,41.60
2023-03-01T20:23:52.515Z,41.85
2023-03-01T20:26:22.726Z,43.58
2023-03-01T20:28:52.682Z,33.35
2023-03-01T20:31:22.468Z,36.83
2023-03-01T20:33:54.980Z,34.65
2023-03-01T20:36:22.724Z,35.40
2023-03-01T20:38:55.659Z,36.90
2023-03-01T20:41:26.178Z,34.00
2023-03-01T20:44:00.295Z,35.05
2023-03-01T20:46:32.159Z,37.25
2023-03-01T20:48:59.820Z,37.35
2023-03-01T20:51:29.682Z,40.50
2023-03-01T20:53:57.197Z,42.60
2023-03-01T20:56:27.636Z,35.60
2023-03-01T20:59:05.397Z,43.15
2023-03-01T21:01:32.757Z,39.45
2023-03-01T21:04:00.535Z,36.13
2023-03-01T21:06:27.437Z,33.08
2023-03-01T21:08:56.150Z,32.45
2023-03-01T21:11:26.734Z,39.63
2023-03-01T21:13:55.343Z,42.10
2023-03-01T21:16:22.990Z,35.72
2023-03-01T21:18:50.293Z,40.65
2023-03-01T21:21:19.543Z,45.95
2023-03-01T21:23:47.126Z,39.63
2023-03-01T21:26:20.017Z,38.90
2023-03-01T21:28:47.979Z,41.72
2023-03-01T21:31:20.690Z,39.95
2023-03-01T21:33:53.998Z,40.38
2023-03-01T21:36:23.903Z,41.30
2023-03-01T21:38:52.535Z,39.83
2023-03-01T21:41:28.522Z,44.80
2023-03-01T21:43:57.806Z,37.90
2023-03-01T21:46:26.231Z,37.05
2023-03-01T21:48:55.403Z,38.47
2023-03-01T21:51:26.636Z,38.05
2023-03-01T21:53:56.263Z,37.85
2023-03-01T21:56:29.608Z,42.38
2023-03-01T21:58:58.359Z,41.97
2023-03-01T22:01:27.382Z,46.20
2023-03-01T22:03:56.333Z,41.50
2023-03-01T22:06:28.248Z,49.47
2023-03-01T22:09:01.176Z,46.67
2023-03-01T22:13:56.718Z,45.25
2023-03-01T22:16:30.697Z,50.55
2023-03-01T22:19:00.357Z,50.05
2023-03-01T22:21:28.274Z,48.53
2023-03-01T22:23:56.468Z,48.42
2023-03-01T22:26:34.970Z,45.33
2023-03-01T22:29:05.909Z,43.15
2023-03-01T22:31:33.055Z,45.78
2023-03-01T22:34:00.772Z,46.20
2023-03-01T22:36:28.877Z,47.28
2023-03-01T22:39:01.936Z,40.58
2023-03-01T22:41:31.276Z,45.88
2023-03-01T22:44:01.279Z,43.50
2023-03-01T22:46:28.585Z,45.90
2023-03-01T22:48:56.740Z,44.17
2023-03-01T22:51:29.225Z,41.97
2023-03-01T22:53:58.070Z,46.42
2023-03-01T22:56:29.416Z,46.58
2023-03-01T22:59:02.634Z,50.35
2023-03-01T23:01:30.715Z,47.05
2023-03-01T23:03:58.205Z,43.55
2023-03-01T23:06:25.147Z,38.00
2023-03-01T23:08:57.165Z,45.17
2023-03-01T23:11:25.922Z,40.55
2023-03-01T23:13:54.311Z,42.67
2023-03-01T23:16:26.064Z,44.47
2023-03-01T23:19:06.258Z,36.95
2023-03-01T23:21:33.707Z,41.28
2023-03-01T23:24:00.741Z,53.15
2023-03-01T23:26:29.569Z,49.70
2023-03-01T23:28:57.391Z,52.92
2023-03-01T23:31:30.276Z,46.75
2023-03-01T23:36:31.209Z,44.17
2023-03-01T23:39:06.460Z,47.85
2023-03-01T23:41:39.073Z,46.30
2023-03-01T23:44:06.632Z,49.65
2023-03-01T23:46:36.169Z,51.92
2023-03-01T23:49:04.904Z,46.45
2023-03-01T23:51:31.758Z,40.47
2023-03-01T23:54:01.783Z,50.58
2023-03-01T23:56:35.370Z,47.90
2023-03-01T23:59:11.987Z,53.38
